createdAt,value
2022-10-02T00:00:00.052Z,16.29
2022-10-02T00:01:00.010Z,16.34
2022-10-02T00:02:00.013Z,16.39
2022-10-02T00:02:59.921Z,16.41
2022-10-02T00:04:00.049Z,16.36
2022-10-02T00:04:59.834Z,16.32
2022-10-02T00:05:59.792Z,16.31
2022-10-02T00:06:59.746Z,16.32
2022-10-02T00:07:59.703Z,16.25
2022-10-02T00:08:59.659Z,16.22
2022-10-02T00:09:59.704Z,16.24
2022-10-02T00:10:59.576Z,16.32
2022-10-02T00:11:59.535Z,16.25
2022-10-02T00:12:59.486Z,16.34
2022-10-02T00:13:59.441Z,16.22
2022-10-02T00:14:59.421Z,16.24
2022-10-02T00:15:59.411Z,16.36
2022-10-02T00:16:59.364Z,16.21
2022-10-02T00:17:59.269Z,16.43
2022-10-02T00:18:59.222Z,16.40
2022-10-02T00:19:59.185Z,16.43
2022-10-02T00:20:59.161Z,16.34
2022-10-02T00:21:59.096Z,16.32
2022-10-02T00:22:59.049Z,16.24
2022-10-02T00:23:59.010Z,16.24
2022-10-02T00:24:58.963Z,16.25
2022-10-02T00:25:58.926Z,16.21
2022-10-02T00:26:58.894Z,16.32
2022-10-02T00:27:58.897Z,16.34
2022-10-02T00:28:58.796Z,16.36
2022-10-02T00:29:58.749Z,16.31
2022-10-02T00:30:58.765Z,16.25
2022-10-02T00:31:58.703Z,16.17
2022-10-02T00:32:58.617Z,16.22
2022-10-02T00:33:58.573Z,16.25
2022-10-02T00:34:58.528Z,16.26
2022-10-02T00:35:58.491Z,16.25
2022-10-02T00:36:58.480Z,16.26
2022-10-02T00:37:58.400Z,16.37
2022-10-02T00:38:58.354Z,16.18
2022-10-02T00:39:58.315Z,16.28
2022-10-02T00:40:58.272Z,16.44
2022-10-02T00:41:58.230Z,16.32
2022-10-02T00:42:58.201Z,16.25
2022-10-02T00:43:58.138Z,16.31
2022-10-02T00:44:58.096Z,16.32
2022-10-02T00:45:58.091Z,16.43
2022-10-02T00:46:58.009Z,16.40
2022-10-02T00:47:57.971Z,16.41
2022-10-02T00:48:57.962Z,16.39
2022-10-02T00:49:57.883Z,16.39
2022-10-02T00:50:57.831Z,16.31
2022-10-02T00:51:57.798Z,16.43
2022-10-02T00:52:57.750Z,16.39
2022-10-02T00:53:57.709Z,16.40
2022-10-02T00:55:07.219Z,16.40
2022-10-02T00:55:57.626Z,16.44
2022-10-02T00:56:57.578Z,16.49
2022-10-02T00:57:57.537Z,16.43
2022-10-02T00:58:57.490Z,16.51
2022-10-02T00:59:57.449Z,16.55
2022-10-02T01:00:57.463Z,16.57
2022-10-02T01:01:57.411Z,16.54
2022-10-02T01:02:57.313Z,16.50
2022-10-02T01:03:57.280Z,16.43
2022-10-02T01:04:57.232Z,16.41
2022-10-02T01:05:57.198Z,16.55
2022-10-02T01:06:57.158Z,16.58
2022-10-02T01:07:57.104Z,16.44
2022-10-02T01:08:57.062Z,16.41
2022-10-02T01:09:57.030Z,16.51
2022-10-02T01:10:56.974Z,16.57
2022-10-02T01:11:56.930Z,16.62
2022-10-02T01:12:56.890Z,16.41
2022-10-02T01:13:56.858Z,16.59
2022-10-02T01:14:56.829Z,16.55
2022-10-02T01:15:56.757Z,16.55
2022-10-02T01:16:56.768Z,16.68
2022-10-02T01:17:56.670Z,16.55
2022-10-02T01:18:56.629Z,16.59
2022-10-02T01:19:56.591Z,16.55
2022-10-02T01:20:56.564Z,16.49
2022-10-02T01:21:56.510Z,16.55
2022-10-02T01:22:56.459Z,16.59
2022-10-02T01:23:56.411Z,16.61
2022-10-02T01:24:56.373Z,16.55
2022-10-02T01:25:56.329Z,16.55
2022-10-02T01:26:56.306Z,16.47
2022-10-02T01:27:56.275Z,16.58
2022-10-02T01:28:56.196Z,16.59
2022-10-02T01:29:56.163Z,16.59
2022-10-02T01:30:56.112Z,16.64
2022-10-02T01:31:56.135Z,16.61
2022-10-02T01:32:56.031Z,16.73
2022-10-02T01:33:55.980Z,16.64
2022-10-02T01:34:55.932Z,16.64
2022-10-02T01:35:55.902Z,16.65
2022-10-02T01:36:55.851Z,16.64
2022-10-02T01:37:55.825Z,16.68
2022-10-02T01:38:55.767Z,16.73
2022-10-02T01:39:55.723Z,16.66
2022-10-02T01:40:55.682Z,16.65
2022-10-02T01:41:55.646Z,16.64
2022-10-02T01:42:55.622Z,16.68
2022-10-02T01:43:55.561Z,16.69
2022-10-02T01:44:55.506Z,16.66
2022-10-02T01:45:55.513Z,16.68
2022-10-02T01:46:55.422Z,16.69
2022-10-02T01:47:55.383Z,16.64
2022-10-02T01:48:55.358Z,16.66
2022-10-02T01:49:55.296Z,16.64
2022-10-02T01:50:55.247Z,16.65
2022-10-02T01:51:55.206Z,16.69
2022-10-02T01:52:55.159Z,16.69
2022-10-02T01:53:55.125Z,16.68
2022-10-02T01:54:55.099Z,16.73
2022-10-02T01:55:55.041Z,16.64
2022-10-02T01:56:54.997Z,16.65
2022-10-02T01:57:54.955Z,16.66
2022-10-02T01:58:54.904Z,16.69
2022-10-02T01:59:54.861Z,16.77
2022-10-02T02:00:54.923Z,16.69
2022-10-02T02:01:54.841Z,16.83
2022-10-02T02:02:54.734Z,16.64
2022-10-02T02:03:54.692Z,16.66
2022-10-02T02:04:54.656Z,16.57
2022-10-02T02:05:54.608Z,16.68
2022-10-02T02:06:54.562Z,16.68
2022-10-02T02:07:54.517Z,16.74
2022-10-02T02:08:57.414Z,16.68
2022-10-02T02:09:54.432Z,16.58
2022-10-02T02:10:54.416Z,16.61
2022-10-02T02:11:54.345Z,16.58
2022-10-02T02:12:54.304Z,16.69
2022-10-02T02:13:54.265Z,16.66
2022-10-02T02:14:54.215Z,16.59
2022-10-02T02:15:54.174Z,16.46
2022-10-02T02:16:54.195Z,16.55
2022-10-02T02:17:54.084Z,16.55
2022-10-02T02:18:54.043Z,16.66
2022-10-02T02:19:54.003Z,16.73
2022-10-02T02:20:53.974Z,16.65
2022-10-02T02:21:53.918Z,16.66
2022-10-02T02:22:53.869Z,16.64
2022-10-02T02:23:53.830Z,16.72
2022-10-02T02:24:53.789Z,16.77
2022-10-02T02:25:53.742Z,16.64
2022-10-02T02:26:53.714Z,16.62
2022-10-02T02:27:53.696Z,16.69
2022-10-02T02:28:53.623Z,16.73
2022-10-02T02:29:53.568Z,16.80
2022-10-02T02:30:53.531Z,16.66
2022-10-02T02:31:53.531Z,16.59
2022-10-02T02:32:53.434Z,16.72
2022-10-02T02:33:53.400Z,16.64
2022-10-02T02:34:53.353Z,16.83
2022-10-02T02:35:53.315Z,16.73
2022-10-02T02:36:53.266Z,16.80
2022-10-02T02:37:53.241Z,16.83
2022-10-02T02:38:53.182Z,16.79
2022-10-02T02:39:53.148Z,16.74
2022-10-02T02:40:53.102Z,16.79
2022-10-02T02:41:53.082Z,16.83
2022-10-02T02:42:53.017Z,16.82
2022-10-02T02:43:52.971Z,16.77
2022-10-02T02:44:52.924Z,16.79
2022-10-02T02:45:52.957Z,16.83
2022-10-02T02:46:52.837Z,16.97
2022-10-02T02:47:52.820Z,16.92
2022-10-02T02:48:52.752Z,16.95
2022-10-02T02:49:52.711Z,16.97
2022-10-02T02:50:52.664Z,16.92
2022-10-02T02:51:52.626Z,16.92
2022-10-02T02:52:52.582Z,16.92
2022-10-02T02:53:52.566Z,16.89
2022-10-02T02:54:52.494Z,16.80
2022-10-02T02:55:52.453Z,16.76
2022-10-02T02:56:52.409Z,16.83
2022-10-02T02:57:52.371Z,16.95
2022-10-02T02:58:52.324Z,16.80
2022-10-02T02:59:52.295Z,16.77
2022-10-02T03:00:52.277Z,16.80
2022-10-02T03:01:52.251Z,16.89
2022-10-02T03:02:52.146Z,16.79
2022-10-02T03:03:52.110Z,16.77
2022-10-02T03:04:52.066Z,16.83
2022-10-02T03:05:52.038Z,16.84
2022-10-02T03:06:51.975Z,16.80
2022-10-02T03:07:51.969Z,16.94
2022-10-02T03:08:51.890Z,16.86
2022-10-02T03:09:51.853Z,16.86
2022-10-02T03:10:51.807Z,16.83
2022-10-02T03:11:51.767Z,16.80
2022-10-02T03:12:51.727Z,16.76
2022-10-02T03:13:51.777Z,16.77
2022-10-02T03:14:51.644Z,16.76
2022-10-02T03:15:51.668Z,16.80
2022-10-02T03:16:51.550Z,16.86
2022-10-02T03:17:51.507Z,16.83
2022-10-02T03:18:51.468Z,16.77
2022-10-02T03:19:51.440Z,16.79
2022-10-02T03:20:51.409Z,16.84
2022-10-02T03:21:51.338Z,16.95
2022-10-02T03:22:51.287Z,16.95
2022-10-02T03:23:51.245Z,16.97
2022-10-02T03:24:51.208Z,16.94
2022-10-02T03:25:51.161Z,16.91
2022-10-02T03:26:51.142Z,16.95
2022-10-02T03:27:51.116Z,16.92
2022-10-02T03:28:56.029Z,16.94
2022-10-02T03:29:50.986Z,17.01
2022-10-02T03:30:50.951Z,17.01
2022-10-02T03:31:50.978Z,16.99
2022-10-02T03:32:50.881Z,16.97
2022-10-02T03:33:50.814Z,17.14
2022-10-02T03:34:50.771Z,16.94
2022-10-02T03:35:50.735Z,16.95
2022-10-02T03:36:50.689Z,16.97
2022-10-02T03:37:50.666Z,16.92
2022-10-02T03:39:06.501Z,16.99
2022-10-02T03:39:50.559Z,16.94
2022-10-02T03:40:50.521Z,16.98
2022-10-02T03:41:50.474Z,16.98
2022-10-02T03:42:50.429Z,17.05
2022-10-02T03:43:50.408Z,17.04
2022-10-02T03:44:50.344Z,16.95
2022-10-02T03:45:51.726Z,16.95
2022-10-02T03:46:50.338Z,16.86
2022-10-02T03:47:50.214Z,16.95
2022-10-02T03:48:50.172Z,16.98
2022-10-02T03:49:50.151Z,17.01
2022-10-02T03:50:50.090Z,16.95
2022-10-02T03:51:50.043Z,16.99
2022-10-02T03:52:50.002Z,17.12
2022-10-02T03:53:49.956Z,17.01
2022-10-02T03:54:49.914Z,17.14
2022-10-02T03:55:50.063Z,17.10
2022-10-02T03:56:49.831Z,17.10
2022-10-02T03:57:49.786Z,17.07
2022-10-02T03:58:49.746Z,16.99
2022-10-02T03:59:49.703Z,17.04
2022-10-02T04:00:49.664Z,16.99
2022-10-02T04:01:49.678Z,16.98
2022-10-02T04:02:49.576Z,16.97
2022-10-02T04:03:49.616Z,17.09
2022-10-02T04:04:49.513Z,17.14
2022-10-02T04:05:49.447Z,17.16
2022-10-02T04:06:49.426Z,17.16
2022-10-02T04:07:52.742Z,17.12
2022-10-02T04:08:49.319Z,17.13
2022-10-02T04:09:49.301Z,17.07
2022-10-02T04:10:49.240Z,17.10
2022-10-02T04:11:49.190Z,17.17
2022-10-02T04:12:49.166Z,17.14
2022-10-02T04:13:49.107Z,17.05
2022-10-02T04:14:49.061Z,17.07
2022-10-02T04:15:49.033Z,17.20
2022-10-02T04:16:48.980Z,17.12
2022-10-02T04:17:48.931Z,17.07
2022-10-02T04:18:48.916Z,17.07
2022-10-02T04:19:48.882Z,17.17
2022-10-02T04:20:48.809Z,17.10
2022-10-02T04:21:48.757Z,17.13
2022-10-02T04:22:48.718Z,17.12
2022-10-02T04:23:48.674Z,17.27
2022-10-02T04:24:48.632Z,17.28
2022-10-02T04:25:48.606Z,17.24
2022-10-02T04:26:48.556Z,17.05
2022-10-02T04:27:48.557Z,17.19
2022-10-02T04:28:48.465Z,17.27
2022-10-02T04:29:48.422Z,17.19
2022-10-02T04:30:48.378Z,17.32
2022-10-02T04:31:48.428Z,17.24
2022-10-02T04:32:48.291Z,17.28
2022-10-02T04:33:48.249Z,17.22
2022-10-02T04:34:48.205Z,17.32
2022-10-02T04:35:48.163Z,17.28
2022-10-02T04:36:48.240Z,17.27
2022-10-02T04:37:48.077Z,17.27
2022-10-02T04:38:48.037Z,17.16
2022-10-02T04:39:47.994Z,17.20
2022-10-02T04:40:47.948Z,17.31
2022-10-02T04:41:47.902Z,17.27
2022-10-02T04:42:47.878Z,17.31
2022-10-02T04:43:47.822Z,17.31
2022-10-02T04:44:47.778Z,17.38
2022-10-02T04:45:47.810Z,17.37
2022-10-02T04:46:47.697Z,17.31
2022-10-02T04:47:47.668Z,17.41
2022-10-02T04:48:47.605Z,17.49
2022-10-02T04:49:47.562Z,17.31
2022-10-02T04:50:47.519Z,17.30
2022-10-02T04:51:47.479Z,17.34
2022-10-02T04:52:47.435Z,17.31
2022-10-02T04:53:47.420Z,17.31
2022-10-02T04:54:47.350Z,17.34
2022-10-02T04:55:47.305Z,17.41
2022-10-02T04:56:47.269Z,17.47
2022-10-02T04:57:47.219Z,17.35
2022-10-02T04:58:47.179Z,17.37
2022-10-02T04:59:47.148Z,17.50
2022-10-02T05:00:47.157Z,17.53
2022-10-02T05:01:47.115Z,17.49
2022-10-02T05:02:47.007Z,17.50
2022-10-02T05:03:46.964Z,17.54
2022-10-02T05:04:46.958Z,17.42
2022-10-02T05:05:46.879Z,17.52
2022-10-02T05:06:46.837Z,17.53
2022-10-02T05:07:46.792Z,17.56
2022-10-02T05:08:46.754Z,17.56
2022-10-02T05:09:46.710Z,17.50
2022-10-02T05:10:46.681Z,17.54
2022-10-02T05:11:46.624Z,17.54
2022-10-02T05:12:46.584Z,17.56
2022-10-02T05:13:46.540Z,17.53
2022-10-02T05:14:46.500Z,17.57
2022-10-02T05:15:46.491Z,17.56
2022-10-02T05:16:46.440Z,17.69
2022-10-02T05:17:46.374Z,17.68
2022-10-02T05:18:46.330Z,17.60
2022-10-02T05:19:46.307Z,17.65
2022-10-02T05:20:46.244Z,17.72
2022-10-02T05:21:46.200Z,17.73
2022-10-02T05:22:46.189Z,17.75
2022-10-02T05:23:46.112Z,17.72
2022-10-02T05:24:46.079Z,17.79
2022-10-02T05:25:46.031Z,17.73
2022-10-02T05:26:45.986Z,17.86
2022-10-02T05:27:46.020Z,17.80
2022-10-02T05:28:45.920Z,17.90
2022-10-02T05:29:45.861Z,17.97
2022-10-02T05:30:45.816Z,17.86
2022-10-02T05:31:45.839Z,17.88
2022-10-02T05:32:45.731Z,17.71
2022-10-02T05:33:48.356Z,17.71
2022-10-02T05:34:45.645Z,17.68
2022-10-02T05:35:45.604Z,17.75
2022-10-02T05:36:45.564Z,17.73
2022-10-02T05:37:45.529Z,17.71
2022-10-02T05:38:45.479Z,17.72
2022-10-02T05:39:45.433Z,17.68
2022-10-02T05:40:45.391Z,17.68
2022-10-02T05:41:45.353Z,17.68
2022-10-02T05:42:45.325Z,17.75
2022-10-02T05:43:45.272Z,17.65
2022-10-02T05:44:45.223Z,17.56
2022-10-02T05:45:45.184Z,17.66
2022-10-02T05:46:45.174Z,17.57
2022-10-02T05:47:45.098Z,17.71
2022-10-02T05:48:45.075Z,17.56
2022-10-02T05:49:45.012Z,17.59
2022-10-02T05:50:44.969Z,17.66
2022-10-02T05:51:44.930Z,17.68
2022-10-02T05:52:44.885Z,17.73
2022-10-02T05:53:44.842Z,17.72
2022-10-02T05:54:44.822Z,17.65
2022-10-02T05:55:44.754Z,17.68
2022-10-02T05:56:44.711Z,17.72
2022-10-02T05:57:44.668Z,17.73
2022-10-02T05:58:44.629Z,17.72
2022-10-02T05:59:44.585Z,17.69
2022-10-02T06:03:48.120Z,17.47
2022-10-02T06:04:47.462Z,17.50
2022-10-02T06:05:47.860Z,17.47
2022-10-02T06:06:47.492Z,17.38
2022-10-02T06:07:47.219Z,17.54
2022-10-02T06:08:47.467Z,17.49
2022-10-02T06:09:47.295Z,17.49
2022-10-02T06:10:47.463Z,17.53
2022-10-02T06:11:47.176Z,17.46
2022-10-02T06:12:47.004Z,17.42
2022-10-02T06:13:46.962Z,17.35
2022-10-02T06:14:50.540Z,17.53
2022-10-02T06:15:47.069Z,17.54
2022-10-02T06:16:47.048Z,17.46
2022-10-02T06:17:46.796Z,17.24
2022-10-02T06:18:46.801Z,17.37
2022-10-02T06:19:46.832Z,17.30
2022-10-02T06:20:46.664Z,17.35
2022-10-02T06:21:46.752Z,17.35
2022-10-02T06:22:46.578Z,17.27
2022-10-02T06:23:46.660Z,17.27
2022-10-02T06:24:46.495Z,17.31
2022-10-02T06:25:46.813Z,17.34
2022-10-02T06:26:46.403Z,17.39
2022-10-02T06:27:46.724Z,17.39
2022-10-02T06:28:46.311Z,17.38
2022-10-02T06:29:46.500Z,17.31
2022-10-02T06:30:46.231Z,17.39
2022-10-02T06:31:46.382Z,17.31
2022-10-02T06:32:46.145Z,17.39
2022-10-02T06:33:46.768Z,17.46
2022-10-02T06:34:48.192Z,17.49
2022-10-02T06:35:46.016Z,17.50
2022-10-02T06:36:45.968Z,17.44
2022-10-02T06:37:46.148Z,17.38
2022-10-02T06:38:45.883Z,17.37
2022-10-02T06:39:47.391Z,17.32
2022-10-02T06:40:45.835Z,17.35
2022-10-02T06:41:45.762Z,17.34
2022-10-02T06:42:45.731Z,17.30
2022-10-02T06:43:45.785Z,17.32
2022-10-02T06:44:45.634Z,17.27
2022-10-02T06:45:46.174Z,17.31
2022-10-02T06:46:49.415Z,17.24
2022-10-02T06:47:45.499Z,17.22
2022-10-02T06:48:45.623Z,17.20
2022-10-02T06:49:45.673Z,17.23
2022-10-02T06:50:45.623Z,17.20
2022-10-02T06:51:45.330Z,17.27
2022-10-02T06:52:45.441Z,17.31
2022-10-02T06:53:45.244Z,17.41
2022-10-02T06:54:45.451Z,17.31
2022-10-02T06:55:45.151Z,17.30
2022-10-02T06:56:45.264Z,17.31
2022-10-02T06:57:45.068Z,17.34
2022-10-02T06:58:45.053Z,17.28
2022-10-02T06:59:45.032Z,17.38
2022-10-02T07:00:45.115Z,17.38
2022-10-02T07:01:44.940Z,17.53
2022-10-02T07:02:45.108Z,17.50
2022-10-02T07:03:44.804Z,17.66
2022-10-02T07:04:44.768Z,17.53
2022-10-02T07:05:45.126Z,17.60
2022-10-02T07:06:44.692Z,17.65
2022-10-02T07:07:44.928Z,17.72
2022-10-02T07:08:44.647Z,17.63
2022-10-02T07:09:44.954Z,17.60
2022-10-02T07:10:44.798Z,17.52
2022-10-02T07:11:44.753Z,17.69
2022-10-02T07:12:44.448Z,17.72
2022-10-02T07:13:44.562Z,17.90
2022-10-02T07:14:44.345Z,17.86
2022-10-02T07:15:44.303Z,17.90
2022-10-02T07:16:44.298Z,17.86
2022-10-02T07:17:45.193Z,17.78
2022-10-02T07:18:44.209Z,17.91
2022-10-02T07:19:44.609Z,17.91
2022-10-02T07:20:44.118Z,17.80
2022-10-02T07:21:44.381Z,17.95
2022-10-02T07:22:45.356Z,18.06
2022-10-02T07:23:44.123Z,17.91
2022-10-02T07:24:43.917Z,17.97
2022-10-02T07:25:44.137Z,17.88
2022-10-02T07:26:43.835Z,17.86
2022-10-02T07:27:43.801Z,17.78
2022-10-02T07:28:43.957Z,17.86
2022-10-02T07:29:44.012Z,17.93
2022-10-02T07:30:43.972Z,17.93
2022-10-02T07:31:43.670Z,17.88
2022-10-02T07:32:43.792Z,17.97
2022-10-02T07:33:43.545Z,17.98
2022-10-02T07:34:43.802Z,17.97
2022-10-02T07:35:43.475Z,17.94
2022-10-02T07:36:43.607Z,18.00
2022-10-02T07:37:43.374Z,18.05
2022-10-02T07:38:43.538Z,18.05
2022-10-02T07:39:43.286Z,18.18
2022-10-02T07:40:43.539Z,18.23
2022-10-02T07:41:43.392Z,18.28
2022-10-02T07:42:43.353Z,18.36
2022-10-02T07:43:43.124Z,18.26
2022-10-02T07:44:43.079Z,18.21
2022-10-02T07:45:43.091Z,18.16
2022-10-02T07:46:43.171Z,18.19
2022-10-02T07:47:43.224Z,18.33
2022-10-02T07:48:43.184Z,18.42
2022-10-02T07:49:42.870Z,18.43
2022-10-02T07:50:42.834Z,18.42
2022-10-02T07:51:43.003Z,18.37
2022-10-02T07:52:42.752Z,18.42
2022-10-02T07:53:43.018Z,18.41
2022-10-02T07:54:42.664Z,18.46
2022-10-02T07:55:42.623Z,18.37
2022-10-02T07:56:42.579Z,18.46
2022-10-02T07:57:42.845Z,18.48
2022-10-02T07:58:42.497Z,18.53
2022-10-02T07:59:42.498Z,18.49
2022-10-02T08:00:42.675Z,18.43
2022-10-02T08:01:42.442Z,18.52
2022-10-02T08:02:42.453Z,18.34
2022-10-02T08:03:42.471Z,18.41
2022-10-02T08:04:42.240Z,18.41
2022-10-02T08:05:42.224Z,18.42
2022-10-02T08:06:42.290Z,18.36
2022-10-02T08:07:42.119Z,18.45
2022-10-02T08:08:42.307Z,18.43
2022-10-02T08:09:42.035Z,18.41
2022-10-02T08:10:42.420Z,18.41
2022-10-02T08:11:43.293Z,18.41
2022-10-02T08:12:41.917Z,18.31
2022-10-02T08:13:41.868Z,18.43
2022-10-02T08:14:42.039Z,18.45
2022-10-02T08:15:41.802Z,18.55
2022-10-02T08:16:42.118Z,18.67
2022-10-02T08:17:41.695Z,18.71
2022-10-02T08:18:41.661Z,18.70
2022-10-02T08:19:41.874Z,18.76
2022-10-02T08:20:41.582Z,18.70
2022-10-02T08:21:41.928Z,18.73
2022-10-02T08:22:41.494Z,18.78
2022-10-02T08:23:41.606Z,18.67
2022-10-02T08:24:41.406Z,18.73
2022-10-02T08:25:41.611Z,18.55
2022-10-02T08:26:41.626Z,18.48
2022-10-02T08:27:41.421Z,18.58
2022-10-02T08:28:41.249Z,18.48
2022-10-02T08:29:41.201Z,18.41
2022-10-02T08:30:41.159Z,18.49
2022-10-02T08:31:41.517Z,18.46
2022-10-02T08:32:41.112Z,18.48
2022-10-02T08:33:41.264Z,18.57
2022-10-02T08:34:40.995Z,18.52
2022-10-02T08:35:40.954Z,18.46
2022-10-02T08:36:41.288Z,18.51
2022-10-02T08:37:40.893Z,18.48
2022-10-02T08:38:41.086Z,18.58
2022-10-02T08:39:40.786Z,18.58
2022-10-02T08:40:40.746Z,18.51
2022-10-02T08:41:40.698Z,18.53
2022-10-02T08:42:41.125Z,18.48
2022-10-02T08:43:40.619Z,18.39
2022-10-02T08:44:40.723Z,18.46
2022-10-02T08:45:40.569Z,18.42
2022-10-02T08:46:40.495Z,18.36
2022-10-02T08:47:40.451Z,18.34
2022-10-02T08:48:40.732Z,18.37
2022-10-02T08:49:40.359Z,18.39
2022-10-02T08:50:40.465Z,18.30
2022-10-02T08:51:40.287Z,18.48
2022-10-02T08:52:40.274Z,18.57
2022-10-02T08:53:40.481Z,18.60
2022-10-02T08:54:40.253Z,18.67
2022-10-02T08:55:40.496Z,18.76
2022-10-02T08:56:40.069Z,18.76
2022-10-02T08:57:40.029Z,18.81
2022-10-02T08:58:40.015Z,18.91
2022-10-02T08:59:41.450Z,18.97
2022-10-02T09:00:40.026Z,18.98
2022-10-02T09:01:40.031Z,19.15
2022-10-02T09:02:39.870Z,19.23
2022-10-02T09:03:40.093Z,19.48
2022-10-02T09:04:40.169Z,19.56
2022-10-02T09:05:39.706Z,19.64
2022-10-02T09:06:39.862Z,19.75
2022-10-02T09:07:39.614Z,19.72
2022-10-02T09:08:39.878Z,19.70
2022-10-02T09:09:39.554Z,19.70
2022-10-02T09:10:39.684Z,19.67
2022-10-02T09:11:39.450Z,19.72
2022-10-02T09:12:39.718Z,19.75
2022-10-02T09:13:39.368Z,19.90
2022-10-02T09:14:39.330Z,19.92
2022-10-02T09:15:39.564Z,19.84
2022-10-02T09:16:39.885Z,19.89
2022-10-02T09:17:39.207Z,19.81
2022-10-02T09:18:39.228Z,19.57
2022-10-02T09:19:39.127Z,19.77
2022-10-02T09:20:39.093Z,19.90
2022-10-02T09:21:39.254Z,19.92
2022-10-02T09:22:39.050Z,19.94
2022-10-02T09:23:40.189Z,19.84
2022-10-02T09:24:38.938Z,19.79
2022-10-02T09:25:38.986Z,19.92
2022-10-02T09:26:39.166Z,19.93
2022-10-02T09:27:39.092Z,19.97
2022-10-02T09:28:38.763Z,20.21
2022-10-02T09:29:38.910Z,19.92
2022-10-02T09:30:38.696Z,19.93
2022-10-02T09:31:38.691Z,20.03
2022-10-02T09:32:38.602Z,19.87
2022-10-02T09:33:38.624Z,19.81
2022-10-02T09:34:38.520Z,19.89
2022-10-02T09:35:38.646Z,19.79
2022-10-02T09:36:38.670Z,19.75
2022-10-02T09:37:38.397Z,19.74
2022-10-02T09:38:39.215Z,19.70
2022-10-02T09:39:38.522Z,19.57
2022-10-02T09:40:38.473Z,19.48
2022-10-02T09:41:38.277Z,19.32
2022-10-02T09:42:38.202Z,19.39
2022-10-02T09:43:38.151Z,19.39
2022-10-02T09:44:38.306Z,19.44
2022-10-02T09:45:38.106Z,19.35
2022-10-02T09:46:38.333Z,19.20
2022-10-02T09:47:38.156Z,19.16
2022-10-02T09:48:37.961Z,19.09
2022-10-02T09:49:38.134Z,19.12
2022-10-02T09:50:37.895Z,19.16
2022-10-02T09:51:37.940Z,19.11
2022-10-02T09:52:42.023Z,18.92
2022-10-02T09:53:37.946Z,18.82
2022-10-02T09:54:37.701Z,18.82
2022-10-02T09:55:37.758Z,18.79
2022-10-02T09:56:37.978Z,18.78
2022-10-02T09:57:37.774Z,18.68
2022-10-02T09:58:37.562Z,18.78
2022-10-02T09:59:37.489Z,18.78
2022-10-02T10:00:37.452Z,18.74
2022-10-02T10:01:37.599Z,18.76
2022-10-02T10:02:37.413Z,18.74
2022-10-02T10:03:37.417Z,18.85
2022-10-02T10:04:54.123Z,18.83
2022-10-02T10:05:37.244Z,18.71
2022-10-02T10:06:37.759Z,18.74
2022-10-02T10:07:37.153Z,18.76
2022-10-02T10:08:37.238Z,18.81
2022-10-02T10:09:37.075Z,18.88
2022-10-02T10:10:37.057Z,18.81
2022-10-02T10:11:37.193Z,18.92
2022-10-02T10:12:37.054Z,18.94
2022-10-02T10:13:36.905Z,18.91
2022-10-02T10:14:37.068Z,18.97
2022-10-02T10:15:36.822Z,18.88
2022-10-02T10:16:36.976Z,18.76
2022-10-02T10:17:36.742Z,18.81
2022-10-02T10:18:36.900Z,18.88
2022-10-02T10:19:36.657Z,18.88
2022-10-02T10:20:36.723Z,18.88
2022-10-02T10:21:36.888Z,18.81
2022-10-02T10:22:36.544Z,18.96
2022-10-02T10:23:36.531Z,19.00
2022-10-02T10:24:36.447Z,18.97
2022-10-02T10:25:36.545Z,18.94
2022-10-02T10:26:36.365Z,19.00
2022-10-02T10:27:36.406Z,19.11
2022-10-02T10:28:36.367Z,19.15
2022-10-02T10:29:36.368Z,19.22
2022-10-02T10:30:36.199Z,19.23
2022-10-02T10:31:36.494Z,19.19
2022-10-02T10:32:36.118Z,19.16
2022-10-02T10:33:36.101Z,19.08
2022-10-02T10:34:36.173Z,19.11
2022-10-02T10:35:36.237Z,19.17
2022-10-02T10:36:35.941Z,19.19
2022-10-02T10:37:36.021Z,19.23
2022-10-02T10:38:35.869Z,19.16
2022-10-02T10:39:35.917Z,19.26
2022-10-02T10:40:35.952Z,19.35
2022-10-02T10:41:35.970Z,19.26
2022-10-02T10:42:56.156Z,19.19
2022-10-02T10:43:35.667Z,19.19
2022-10-02T10:44:35.612Z,19.17
2022-10-02T10:45:35.925Z,19.16
2022-10-02T10:46:35.570Z,19.15
2022-10-02T10:47:35.487Z,19.16
2022-10-02T10:48:35.582Z,19.29
2022-10-02T10:49:35.458Z,19.19
2022-10-02T10:50:35.455Z,19.35
2022-10-02T10:51:35.603Z,19.42
2022-10-02T10:52:35.276Z,19.42
2022-10-02T10:53:35.349Z,19.48
2022-10-02T10:54:35.195Z,19.64
2022-10-02T10:55:35.153Z,19.66
2022-10-02T10:56:35.285Z,19.87
2022-10-02T10:57:35.241Z,19.96
2022-10-02T10:58:35.040Z,19.96
2022-10-02T10:59:35.050Z,20.00
2022-10-02T11:00:34.957Z,19.97
2022-10-02T11:01:35.133Z,20.04
2022-10-02T11:02:34.936Z,20.03
2022-10-02T11:03:34.875Z,20.07
2022-10-02T11:04:34.800Z,20.14
2022-10-02T11:05:34.886Z,20.07
2022-10-02T11:06:34.717Z,20.22
2022-10-02T11:07:34.663Z,20.07
2022-10-02T11:08:34.667Z,20.08
2022-10-02T11:09:34.719Z,20.03
2022-10-02T11:10:34.588Z,19.97
2022-10-02T11:11:35.053Z,20.04
2022-10-02T11:12:34.534Z,20.19
2022-10-02T11:13:34.425Z,20.14
2022-10-02T11:14:34.749Z,20.21
2022-10-02T11:15:34.342Z,20.26
2022-10-02T11:16:34.404Z,20.32
2022-10-02T11:17:34.264Z,20.21
2022-10-02T11:18:34.259Z,20.19
2022-10-02T11:19:34.199Z,20.10
2022-10-02T11:20:34.454Z,20.12
2022-10-02T11:21:34.371Z,19.99
2022-10-02T11:22:34.199Z,20.02
2022-10-02T11:23:34.025Z,20.10
2022-10-02T11:24:34.283Z,20.18
2022-10-02T11:25:33.942Z,20.44
2022-10-02T11:26:33.928Z,20.75
2022-10-02T11:27:34.029Z,20.89
2022-10-02T11:28:33.827Z,21.17
2022-10-02T11:29:33.783Z,21.44
2022-10-02T11:30:36.106Z,21.51
2022-10-02T11:31:33.963Z,21.63
2022-10-02T11:32:33.709Z,21.63
2022-10-02T11:33:33.863Z,21.83
2022-10-02T11:34:33.590Z,22.19
2022-10-02T11:35:33.553Z,22.51
2022-10-02T11:36:33.682Z,22.81
2022-10-02T11:37:33.470Z,22.95
2022-10-02T11:38:33.799Z,22.95
2022-10-02T11:39:33.399Z,22.91
2022-10-02T11:40:33.357Z,23.01
2022-10-02T11:41:33.362Z,22.99
2022-10-02T11:42:33.531Z,23.10
2022-10-02T11:43:33.242Z,23.20
2022-10-02T11:44:33.335Z,23.16
2022-10-02T11:45:33.224Z,23.16
2022-10-02T11:46:33.143Z,23.44
2022-10-02T11:47:33.154Z,23.74
2022-10-02T11:48:33.057Z,24.00
2022-10-02T11:49:33.163Z,24.13
2022-10-02T11:50:33.018Z,24.10
2022-10-02T11:51:33.202Z,24.21
2022-10-02T11:52:32.907Z,24.00
2022-10-02T11:53:32.990Z,24.06
2022-10-02T11:54:32.832Z,24.40
2022-10-02T11:55:33.027Z,24.47
2022-10-02T11:56:33.891Z,24.58
2022-10-02T11:57:32.751Z,24.69
2022-10-02T11:58:32.688Z,24.58
2022-10-02T11:59:32.871Z,24.31
2022-10-02T12:00:32.625Z,24.11
2022-10-02T12:01:32.639Z,24.01
2022-10-02T12:02:32.670Z,23.91
2022-10-02T12:03:32.779Z,23.69
2022-10-02T12:04:32.488Z,23.36
2022-10-02T12:05:32.661Z,23.28
2022-10-02T12:06:32.388Z,23.20
2022-10-02T12:07:32.473Z,23.20
2022-10-02T12:08:32.315Z,22.98
2022-10-02T12:09:32.355Z,22.67
2022-10-02T12:10:32.298Z,22.52
2022-10-02T12:11:32.226Z,22.43
2022-10-02T12:12:32.308Z,22.46
2022-10-02T12:13:32.124Z,22.76
2022-10-02T12:14:32.080Z,22.89
2022-10-02T12:15:32.174Z,23.26
2022-10-02T12:16:32.089Z,23.21
2022-10-02T12:17:31.962Z,23.25
2022-10-02T12:18:32.042Z,23.45
2022-10-02T12:19:31.912Z,23.70
2022-10-02T12:20:31.855Z,23.82
2022-10-02T12:21:31.811Z,24.07
2022-10-02T12:22:31.865Z,24.55
2022-10-02T12:23:31.738Z,25.09
2022-10-02T12:24:31.882Z,25.56
2022-10-02T12:25:32.971Z,26.03
2022-10-02T12:26:31.630Z,26.27
2022-10-02T12:27:31.707Z,26.44
2022-10-02T12:28:31.644Z,26.61
2022-10-02T12:29:31.607Z,26.96
2022-10-02T12:30:31.478Z,27.08
2022-10-02T12:31:31.883Z,27.34
2022-10-02T12:32:31.433Z,27.29
2022-10-02T12:33:31.533Z,27.07
2022-10-02T12:34:31.370Z,27.05
2022-10-02T12:35:31.551Z,26.92
2022-10-02T12:36:31.275Z,26.91
2022-10-02T12:37:31.315Z,27.08
2022-10-02T12:38:31.216Z,26.92
2022-10-02T12:39:31.772Z,26.51
2022-10-02T12:40:31.305Z,26.37
2022-10-02T12:41:31.095Z,25.95
2022-10-02T12:42:31.207Z,25.96
2022-10-02T12:43:31.021Z,25.93
2022-10-02T12:44:31.131Z,25.89
2022-10-02T12:45:31.010Z,25.77
2022-10-02T12:46:31.239Z,25.54
2022-10-02T12:47:30.879Z,25.71
2022-10-02T12:48:32.245Z,25.91
2022-10-02T12:49:30.805Z,25.95
2022-10-02T12:50:30.846Z,26.10
2022-10-02T12:51:30.743Z,26.06
2022-10-02T12:52:30.916Z,25.71
2022-10-02T12:53:30.665Z,25.44
2022-10-02T12:54:30.902Z,25.12